sensor_id;sensor_type;location;lat;lon;timestamp;P1;durP1;ratioP1;P2;durP2;ratioP2
19026;SDS011;9646;52.034;5.554;2023-02-15T00:01:30;30.13;;;19.77;;
19026;SDS011;9646;52.034;5.554;2023-02-15T00:03:57;28.73;;;19.90;;
19026;SDS011;9646;52.034;5.554;2023-02-15T00:06:24;32.15;;;20.25;;
19026;SDS011;9646;52.034;5.554;2023-02-15T00:08:52;28.83;;;19.42;;
19026;SDS011;9646;52.034;5.554;2023-02-15T00:11:19;31.67;;;19.73;;
19026;SDS011;9646;52.034;5.554;2023-02-15T00:14:04;27.20;;;19.65;;
19026;SDS011;9646;52.034;5.554;2023-02-15T00:16:33;28.40;;;19.98;;
19026;SDS011;9646;52.034;5.554;2023-02-15T00:19:00;26.52;;;19.90;;
19026;SDS011;9646;52.034;5.554;2023-02-15T00:21:27;25.35;;;18.80;;
19026;SDS011;9646;52.034;5.554;2023-02-15T00:23:55;29.42;;;18.27;;
19026;SDS011;9646;52.034;5.554;2023-02-15T00:26:22;25.77;;;17.70;;
19026;SDS011;9646;52.034;5.554;2023-02-15T00:28:49;25.17;;;17.38;;
19026;SDS011;9646;52.034;5.554;2023-02-15T00:31:16;25.35;;;15.65;;
19026;SDS011;9646;52.034;5.554;2023-02-15T00:33:44;22.05;;;15.85;;
19026;SDS011;9646;52.034;5.554;2023-02-15T00:36:11;21.85;;;15.60;;
19026;SDS011;9646;52.034;5.554;2023-02-15T00:38:39;23.20;;;15.60;;
19026;SDS011;9646;52.034;5.554;2023-02-15T00:41:06;22.25;;;15.63;;
19026;SDS011;9646;52.034;5.554;2023-02-15T00:43:34;20.92;;;15.05;;
19026;SDS011;9646;52.034;5.554;2023-02-15T00:46:01;20.20;;;14.73;;
19026;SDS011;9646;52.034;5.554;2023-02-15T00:48:29;20.60;;;14.98;;
19026;SDS011;9646;52.034;5.554;2023-02-15T00:50:58;18.85;;;14.25;;
19026;SDS011;9646;52.034;5.554;2023-02-15T00:53:26;20.88;;;15.52;;
19026;SDS011;9646;52.034;5.554;2023-02-15T00:55:53;21.33;;;14.95;;
19026;SDS011;9646;52.034;5.554;2023-02-15T00:58:20;21.55;;;14.57;;
19026;SDS011;9646;52.034;5.554;2023-02-15T01:00:47;19.20;;;14.35;;
19026;SDS011;9646;52.034;5.554;2023-02-15T01:03:15;17.25;;;13.48;;
19026;SDS011;9646;52.034;5.554;2023-02-15T01:05:43;21.35;;;14.35;;
19026;SDS011;9646;52.034;5.554;2023-02-15T01:08:11;20.10;;;13.82;;
19026;SDS011;9646;52.034;5.554;2023-02-15T01:10:38;22.98;;;14.68;;
19026;SDS011;9646;52.034;5.554;2023-02-15T01:13:05;18.63;;;13.23;;
19026;SDS011;9646;52.034;5.554;2023-02-15T01:15:34;19.15;;;14.13;;
19026;SDS011;9646;52.034;5.554;2023-02-15T01:18:01;19.20;;;13.18;;
19026;SDS011;9646;52.034;5.554;2023-02-15T01:20:28;17.83;;;13.15;;
19026;SDS011;9646;52.034;5.554;2023-02-15T01:22:56;19.10;;;13.60;;
19026;SDS011;9646;52.034;5.554;2023-02-15T01:25:25;17.98;;;12.48;;
19026;SDS011;9646;52.034;5.554;2023-02-15T01:27:52;18.63;;;12.77;;
19026;SDS011;9646;52.034;5.554;2023-02-15T01:30:19;16.17;;;12.75;;
19026;SDS011;9646;52.034;5.554;2023-02-15T01:32:46;18.75;;;12.85;;
19026;SDS011;9646;52.034;5.554;2023-02-15T01:35:13;18.95;;;13.65;;
19026;SDS011;9646;52.034;5.554;2023-02-15T01:37:40;16.60;;;12.73;;
19026;SDS011;9646;52.034;5.554;2023-02-15T01:40:08;17.40;;;11.88;;
19026;SDS011;9646;52.034;5.554;2023-02-15T01:42:37;15.93;;;11.73;;
19026;SDS011;9646;52.034;5.554;2023-02-15T01:45:04;16.60;;;12.13;;
19026;SDS011;9646;52.034;5.554;2023-02-15T01:47:33;17.77;;;12.75;;
19026;SDS011;9646;52.034;5.554;2023-02-15T01:50:05;19.67;;;12.27;;
19026;SDS011;9646;52.034;5.554;2023-02-15T01:52:35;16.73;;;12.23;;
19026;SDS011;9646;52.034;5.554;2023-02-15T01:55:04;19.00;;;12.05;;
19026;SDS011;9646;52.034;5.554;2023-02-15T01:57:31;16.30;;;11.88;;
19026;SDS011;9646;52.034;5.554;2023-02-15T02:00:00;17.75;;;12.07;;
19026;SDS011;9646;52.034;5.554;2023-02-15T02:02:28;16.25;;;11.93;;
19026;SDS011;9646;52.034;5.554;2023-02-15T02:04:56;15.70;;;11.32;;
19026;SDS011;9646;52.034;5.554;2023-02-15T02:07:26;15.05;;;11.15;;
19026;SDS011;9646;52.034;5.554;2023-02-15T02:09:53;16.73;;;12.00;;
19026;SDS011;9646;52.034;5.554;2023-02-15T02:12:21;14.02;;;10.75;;
19026;SDS011;9646;52.034;5.554;2023-02-15T02:14:49;16.20;;;11.50;;
19026;SDS011;9646;52.034;5.554;2023-02-15T02:17:19;19.05;;;12.57;;
19026;SDS011;9646;52.034;5.554;2023-02-15T02:20:04;16.20;;;11.15;;
19026;SDS011;9646;52.034;5.554;2023-02-15T02:25:53;16.38;;;10.77;;
19026;SDS011;9646;52.034;5.554;2023-02-15T02:28:40;16.20;;;10.70;;
19026;SDS011;9646;52.034;5.554;2023-02-15T02:33:55;18.05;;;12.30;;
19026;SDS011;9646;52.034;5.554;2023-02-15T02:36:27;14.45;;;10.30;;
19026;SDS011;9646;52.034;5.554;2023-02-15T02:39:06;18.20;;;11.18;;
19026;SDS011;9646;52.034;5.554;2023-02-15T02:41:36;17.52;;;11.45;;
19026;SDS011;9646;52.034;5.554;2023-02-15T02:44:07;16.42;;;10.93;;
19026;SDS011;9646;52.034;5.554;2023-02-15T02:46:38;15.85;;;11.25;;
19026;SDS011;9646;52.034;5.554;2023-02-15T02:49:09;17.23;;;10.70;;
19026;SDS011;9646;52.034;5.554;2023-02-15T02:51:36;16.42;;;11.20;;
19026;SDS011;9646;52.034;5.554;2023-02-15T02:54:04;16.77;;;10.80;;
19026;SDS011;9646;52.034;5.554;2023-02-15T02:56:33;17.48;;;11.57;;
19026;SDS011;9646;52.034;5.554;2023-02-15T02:59:04;15.80;;;11.43;;
19026;SDS011;9646;52.034;5.554;2023-02-15T03:01:34;14.95;;;10.98;;
19026;SDS011;9646;52.034;5.554;2023-02-15T03:04:03;16.95;;;10.90;;
19026;SDS011;9646;52.034;5.554;2023-02-15T03:06:35;14.23;;;10.05;;
19026;SDS011;9646;52.034;5.554;2023-02-15T03:09:06;17.45;;;10.80;;
19026;SDS011;9646;52.034;5.554;2023-02-15T03:11:40;15.75;;;11.13;;
19026;SDS011;9646;52.034;5.554;2023-02-15T03:14:07;14.77;;;10.85;;
19026;SDS011;9646;52.034;5.554;2023-02-15T03:16:34;14.57;;;10.70;;
19026;SDS011;9646;52.034;5.554;2023-02-15T03:19:03;13.70;;;10.15;;
19026;SDS011;9646;52.034;5.554;2023-02-15T03:21:35;14.10;;;9.98;;
19026;SDS011;9646;52.034;5.554;2023-02-15T03:24:06;14.18;;;10.63;;
19026;SDS011;9646;52.034;5.554;2023-02-15T03:26:34;11.77;;;9.30;;
19026;SDS011;9646;52.034;5.554;2023-02-15T03:29:03;15.50;;;10.65;;
19026;SDS011;9646;52.034;5.554;2023-02-15T03:31:32;15.10;;;10.43;;
19026;SDS011;9646;52.034;5.554;2023-02-15T03:34:02;16.02;;;11.05;;
19026;SDS011;9646;52.034;5.554;2023-02-15T03:36:31;12.82;;;10.15;;
19026;SDS011;9646;52.034;5.554;2023-02-15T03:39:04;15.65;;;10.50;;
19026;SDS011;9646;52.034;5.554;2023-02-15T03:41:39;15.50;;;10.40;;
19026;SDS011;9646;52.034;5.554;2023-02-15T03:44:08;14.23;;;10.13;;
19026;SDS011;9646;52.034;5.554;2023-02-15T03:46:39;17.35;;;10.32;;
19026;SDS011;9646;52.034;5.554;2023-02-15T03:49:09;14.63;;;11.20;;
19026;SDS011;9646;52.034;5.554;2023-02-15T03:51:37;13.77;;;9.60;;
19026;SDS011;9646;52.034;5.554;2023-02-15T03:54:08;15.60;;;9.73;;
19026;SDS011;9646;52.034;5.554;2023-02-15T03:56:36;13.63;;;9.45;;
19026;SDS011;9646;52.034;5.554;2023-02-15T03:59:03;16.63;;;9.68;;
19026;SDS011;9646;52.034;5.554;2023-02-15T04:01:52;12.70;;;9.73;;
19026;SDS011;9646;52.034;5.554;2023-02-15T04:04:25;13.93;;;9.52;;
19026;SDS011;9646;52.034;5.554;2023-02-15T04:06:53;14.82;;;10.48;;
19026;SDS011;9646;52.034;5.554;2023-02-15T04:09:21;13.77;;;9.48;;
19026;SDS011;9646;52.034;5.554;2023-02-15T04:12:06;15.05;;;10.52;;
19026;SDS011;9646;52.034;5.554;2023-02-15T04:14:34;13.02;;;9.80;;
19026;SDS011;9646;52.034;5.554;2023-02-15T04:17:18;13.35;;;9.57;;
19026;SDS011;9646;52.034;5.554;2023-02-15T04:19:45;13.32;;;9.50;;
19026;SDS011;9646;52.034;5.554;2023-02-15T04:22:30;13.07;;;9.73;;
19026;SDS011;9646;52.034;5.554;2023-02-15T04:25:16;13.32;;;9.63;;
19026;SDS011;9646;52.034;5.554;2023-02-15T04:27:45;13.23;;;9.20;;
19026;SDS011;9646;52.034;5.554;2023-02-15T04:30:13;12.82;;;8.75;;
19026;SDS011;9646;52.034;5.554;2023-02-15T04:32:40;14.43;;;10.55;;
19026;SDS011;9646;52.034;5.554;2023-02-15T04:35:07;12.15;;;9.43;;
19026;SDS011;9646;52.034;5.554;2023-02-15T04:37:35;13.93;;;9.55;;
19026;SDS011;9646;52.034;5.554;2023-02-15T04:40:02;15.90;;;9.48;;
19026;SDS011;9646;52.034;5.554;2023-02-15T04:42:31;13.98;;;9.77;;
19026;SDS011;9646;52.034;5.554;2023-02-15T04:44:58;12.00;;;8.88;;
19026;SDS011;9646;52.034;5.554;2023-02-15T04:47:25;13.32;;;9.07;;
19026;SDS011;9646;52.034;5.554;2023-02-15T04:49:52;13.73;;;9.98;;
19026;SDS011;9646;52.034;5.554;2023-02-15T04:52:19;12.55;;;9.00;;
19026;SDS011;9646;52.034;5.554;2023-02-15T04:54:46;13.80;;;9.52;;
19026;SDS011;9646;52.034;5.554;2023-02-15T04:57:13;13.60;;;8.98;;
19026;SDS011;9646;52.034;5.554;2023-02-15T04:59:42;14.95;;;9.70;;
19026;SDS011;9646;52.034;5.554;2023-02-15T05:02:09;12.98;;;9.20;;
19026;SDS011;9646;52.034;5.554;2023-02-15T05:04:36;14.88;;;9.30;;
19026;SDS011;9646;52.034;5.554;2023-02-15T05:07:03;14.32;;;9.27;;
19026;SDS011;9646;52.034;5.554;2023-02-15T05:09:30;12.75;;;8.88;;
19026;SDS011;9646;52.034;5.554;2023-02-15T05:11:57;12.60;;;8.30;;
19026;SDS011;9646;52.034;5.554;2023-02-15T05:14:24;14.45;;;9.38;;
19026;SDS011;9646;52.034;5.554;2023-02-15T05:16:53;13.95;;;10.00;;
19026;SDS011;9646;52.034;5.554;2023-02-15T05:19:20;11.98;;;8.82;;
19026;SDS011;9646;52.034;5.554;2023-02-15T05:21:49;13.32;;;9.15;;
19026;SDS011;9646;52.034;5.554;2023-02-15T05:24:16;13.60;;;9.32;;
19026;SDS011;9646;52.034;5.554;2023-02-15T05:27:01;13.38;;;9.27;;
19026;SDS011;9646;52.034;5.554;2023-02-15T05:29:45;13.38;;;10.10;;
19026;SDS011;9646;52.034;5.554;2023-02-15T05:32:13;13.93;;;8.75;;
19026;SDS011;9646;52.034;5.554;2023-02-15T05:34:40;15.00;;;10.63;;
19026;SDS011;9646;52.034;5.554;2023-02-15T05:37:07;16.95;;;11.07;;
19026;SDS011;9646;52.034;5.554;2023-02-15T05:39:35;13.00;;;9.68;;
19026;SDS011;9646;52.034;5.554;2023-02-15T05:42:02;13.82;;;9.10;;
19026;SDS011;9646;52.034;5.554;2023-02-15T05:44:29;13.63;;;9.93;;
19026;SDS011;9646;52.034;5.554;2023-02-15T05:46:56;13.52;;;9.27;;
19026;SDS011;9646;52.034;5.554;2023-02-15T05:49:24;11.73;;;8.98;;
19026;SDS011;9646;52.034;5.554;2023-02-15T05:51:51;14.90;;;10.05;;
19026;SDS011;9646;52.034;5.554;2023-02-15T05:54:18;16.75;;;11.98;;
19026;SDS011;9646;52.034;5.554;2023-02-15T05:56:46;12.70;;;9.07;;
19026;SDS011;9646;52.034;5.554;2023-02-15T05:59:13;16.48;;;10.55;;
19026;SDS011;9646;52.034;5.554;2023-02-15T06:01:40;16.80;;;11.20;;
19026;SDS011;9646;52.034;5.554;2023-02-15T06:04:07;12.82;;;9.50;;
19026;SDS011;9646;52.034;5.554;2023-02-15T06:06:35;15.88;;;10.80;;
19026;SDS011;9646;52.034;5.554;2023-02-15T06:09:02;15.70;;;9.77;;
19026;SDS011;9646;52.034;5.554;2023-02-15T06:11:30;13.63;;;9.60;;
19026;SDS011;9646;52.034;5.554;2023-02-15T06:13:57;13.98;;;9.25;;
19026;SDS011;9646;52.034;5.554;2023-02-15T06:16:24;14.30;;;9.13;;
19026;SDS011;9646;52.034;5.554;2023-02-15T06:18:51;13.63;;;9.43;;
19026;SDS011;9646;52.034;5.554;2023-02-15T06:21:18;12.73;;;9.05;;
19026;SDS011;9646;52.034;5.554;2023-02-15T06:23:46;12.65;;;9.30;;
19026;SDS011;9646;52.034;5.554;2023-02-15T06:26:13;13.77;;;9.70;;
19026;SDS011;9646;52.034;5.554;2023-02-15T06:28:40;14.57;;;9.43;;
19026;SDS011;9646;52.034;5.554;2023-02-15T06:31:07;16.17;;;10.20;;
19026;SDS011;9646;52.034;5.554;2023-02-15T06:33:35;11.93;;;8.50;;
19026;SDS011;9646;52.034;5.554;2023-02-15T06:36:03;14.43;;;9.27;;
19026;SDS011;9646;52.034;5.554;2023-02-15T06:38:30;14.82;;;9.88;;
19026;SDS011;9646;52.034;5.554;2023-02-15T06:40:59;12.98;;;9.75;;
19026;SDS011;9646;52.034;5.554;2023-02-15T06:43:26;13.45;;;9.05;;
19026;SDS011;9646;52.034;5.554;2023-02-15T06:45:53;13.18;;;9.65;;
19026;SDS011;9646;52.034;5.554;2023-02-15T06:48:20;16.20;;;10.25;;
19026;SDS011;9646;52.034;5.554;2023-02-15T06:50:47;16.00;;;10.43;;
19026;SDS011;9646;52.034;5.554;2023-02-15T06:53:14;15.02;;;10.15;;
19026;SDS011;9646;52.034;5.554;2023-02-15T06:55:41;12.73;;;8.95;;
19026;SDS011;9646;52.034;5.554;2023-02-15T06:58:10;12.35;;;9.40;;
19026;SDS011;9646;52.034;5.554;2023-02-15T07:00:37;11.82;;;8.13;;
19026;SDS011;9646;52.034;5.554;2023-02-15T07:03:04;15.68;;;10.45;;
19026;SDS011;9646;52.034;5.554;2023-02-15T07:05:32;15.05;;;10.52;;
19026;SDS011;9646;52.034;5.554;2023-02-15T07:08:00;16.20;;;10.02;;
19026;SDS011;9646;52.034;5.554;2023-02-15T07:10:27;14.07;;;9.70;;
19026;SDS011;9646;52.034;5.554;2023-02-15T07:12:54;14.93;;;10.43;;
19026;SDS011;9646;52.034;5.554;2023-02-15T07:15:22;14.35;;;10.50;;
19026;SDS011;9646;52.034;5.554;2023-02-15T07:17:49;15.27;;;9.95;;
19026;SDS011;9646;52.034;5.554;2023-02-15T07:20:17;13.23;;;9.82;;
19026;SDS011;9646;52.034;5.554;2023-02-15T07:22:45;14.52;;;9.90;;
19026;SDS011;9646;52.034;5.554;2023-02-15T07:25:12;13.30;;;9.52;;
19026;SDS011;9646;52.034;5.554;2023-02-15T07:27:39;16.45;;;10.32;;
19026;SDS011;9646;52.034;5.554;2023-02-15T07:30:07;14.85;;;10.25;;
19026;SDS011;9646;52.034;5.554;2023-02-15T07:32:36;13.63;;;10.15;;
19026;SDS011;9646;52.034;5.554;2023-02-15T07:35:24;14.55;;;10.27;;
19026;SDS011;9646;52.034;5.554;2023-02-15T07:37:51;11.40;;;7.85;;
19026;SDS011;9646;52.034;5.554;2023-02-15T07:40:18;13.00;;;10.13;;
19026;SDS011;9646;52.034;5.554;2023-02-15T07:42:48;14.27;;;8.23;;
19026;SDS011;9646;52.034;5.554;2023-02-15T07:45:16;11.88;;;8.40;;
19026;SDS011;9646;52.034;5.554;2023-02-15T07:47:45;19.70;;;11.48;;
19026;SDS011;9646;52.034;5.554;2023-02-15T07:50:12;18.65;;;11.18;;
19026;SDS011;9646;52.034;5.554;2023-02-15T07:52:39;17.13;;;10.70;;
19026;SDS011;9646;52.034;5.554;2023-02-15T07:55:06;18.40;;;11.00;;
19026;SDS011;9646;52.034;5.554;2023-02-15T07:57:38;17.92;;;11.18;;
19026;SDS011;9646;52.034;5.554;2023-02-15T08:00:08;19.83;;;11.27;;
19026;SDS011;9646;52.034;5.554;2023-02-15T08:02:36;17.15;;;11.35;;
19026;SDS011;9646;52.034;5.554;2023-02-15T08:05:05;18.67;;;11.35;;
19026;SDS011;9646;52.034;5.554;2023-02-15T08:07:32;18.00;;;11.57;;
19026;SDS011;9646;52.034;5.554;2023-02-15T08:09:59;17.35;;;11.05;;
19026;SDS011;9646;52.034;5.554;2023-02-15T08:12:26;17.88;;;11.52;;
19026;SDS011;9646;52.034;5.554;2023-02-15T08:14:53;16.20;;;10.65;;
19026;SDS011;9646;52.034;5.554;2023-02-15T08:17:20;15.18;;;10.68;;
19026;SDS011;9646;52.034;5.554;2023-02-15T08:19:48;15.32;;;11.15;;
19026;SDS011;9646;52.034;5.554;2023-02-15T08:22:17;19.00;;;11.45;;
19026;SDS011;9646;52.034;5.554;2023-02-15T08:24:44;15.75;;;11.05;;
19026;SDS011;9646;52.034;5.554;2023-02-15T08:27:11;16.88;;;10.98;;
19026;SDS011;9646;52.034;5.554;2023-02-15T08:29:38;14.05;;;10.15;;
19026;SDS011;9646;52.034;5.554;2023-02-15T08:32:07;19.00;;;11.18;;
19026;SDS011;9646;52.034;5.554;2023-02-15T08:34:36;18.77;;;10.98;;
19026;SDS011;9646;52.034;5.554;2023-02-15T08:37:03;16.65;;;11.60;;
19026;SDS011;9646;52.034;5.554;2023-02-15T08:39:32;18.65;;;11.40;;
19026;SDS011;9646;52.034;5.554;2023-02-15T08:41:59;18.33;;;11.25;;
19026;SDS011;9646;52.034;5.554;2023-02-15T08:44:26;17.73;;;11.45;;
19026;SDS011;9646;52.034;5.554;2023-02-15T08:46:54;15.73;;;11.40;;
19026;SDS011;9646;52.034;5.554;2023-02-15T08:49:23;16.27;;;10.93;;
19026;SDS011;9646;52.034;5.554;2023-02-15T08:51:50;15.35;;;11.18;;
19026;SDS011;9646;52.034;5.554;2023-02-15T08:54:18;16.55;;;11.52;;
19026;SDS011;9646;52.034;5.554;2023-02-15T08:56:47;17.23;;;11.18;;
19026;SDS011;9646;52.034;5.554;2023-02-15T08:59:15;20.23;;;12.65;;
19026;SDS011;9646;52.034;5.554;2023-02-15T09:01:43;17.65;;;11.63;;
19026;SDS011;9646;52.034;5.554;2023-02-15T09:04:10;15.85;;;11.70;;
19026;SDS011;9646;52.034;5.554;2023-02-15T09:06:38;16.40;;;10.75;;
19026;SDS011;9646;52.034;5.554;2023-02-15T09:09:06;17.35;;;11.82;;
19026;SDS011;9646;52.034;5.554;2023-02-15T09:11:34;13.65;;;10.32;;
19026;SDS011;9646;52.034;5.554;2023-02-15T09:14:04;18.40;;;11.13;;
19026;SDS011;9646;52.034;5.554;2023-02-15T09:16:33;17.13;;;11.00;;
19026;SDS011;9646;52.034;5.554;2023-02-15T09:19:00;16.92;;;11.88;;
19026;SDS011;9646;52.034;5.554;2023-02-15T09:21:29;19.75;;;12.30;;
19026;SDS011;9646;52.034;5.554;2023-02-15T09:23:57;19.88;;;12.50;;
19026;SDS011;9646;52.034;5.554;2023-02-15T09:26:25;21.20;;;14.18;;
19026;SDS011;9646;52.034;5.554;2023-02-15T09:28:54;21.48;;;14.05;;
19026;SDS011;9646;52.034;5.554;2023-02-15T09:31:24;18.75;;;13.25;;
19026;SDS011;9646;52.034;5.554;2023-02-15T09:33:51;21.92;;;13.77;;
19026;SDS011;9646;52.034;5.554;2023-02-15T09:36:19;24.88;;;15.98;;
19026;SDS011;9646;52.034;5.554;2023-02-15T09:38:50;18.83;;;12.43;;
19026;SDS011;9646;52.034;5.554;2023-02-15T09:41:33;21.90;;;13.60;;
19026;SDS011;9646;52.034;5.554;2023-02-15T09:44:06;24.70;;;14.13;;
19026;SDS011;9646;52.034;5.554;2023-02-15T09:46:47;24.25;;;15.73;;
19026;SDS011;9646;52.034;5.554;2023-02-15T09:49:21;26.77;;;17.88;;
19026;SDS011;9646;52.034;5.554;2023-02-15T09:51:57;22.42;;;14.73;;
19026;SDS011;9646;52.034;5.554;2023-02-15T09:54:32;19.27;;;11.57;;
19026;SDS011;9646;52.034;5.554;2023-02-15T09:57:05;18.20;;;11.80;;
19026;SDS011;9646;52.034;5.554;2023-02-15T09:59:36;30.77;;;19.05;;
19026;SDS011;9646;52.034;5.554;2023-02-15T10:02:14;19.77;;;12.73;;
19026;SDS011;9646;52.034;5.554;2023-02-15T10:04:48;24.30;;;15.63;;
19026;SDS011;9646;52.034;5.554;2023-02-15T10:07:22;27.70;;;16.95;;
19026;SDS011;9646;52.034;5.554;2023-02-15T10:10:00;27.38;;;18.10;;
19026;SDS011;9646;52.034;5.554;2023-02-15T10:15:23;29.98;;;18.13;;
19026;SDS011;9646;52.034;5.554;2023-02-15T10:17:59;29.50;;;18.15;;
19026;SDS011;9646;52.034;5.554;2023-02-15T10:20:28;28.77;;;19.10;;
19026;SDS011;9646;52.034;5.554;2023-02-15T10:23:05;21.33;;;14.27;;
19026;SDS011;9646;52.034;5.554;2023-02-15T10:25:38;25.50;;;15.70;;
19026;SDS011;9646;52.034;5.554;2023-02-15T10:28:11;25.08;;;14.82;;
19026;SDS011;9646;52.034;5.554;2023-02-15T10:30:44;22.55;;;14.48;;
19026;SDS011;9646;52.034;5.554;2023-02-15T10:33:16;22.15;;;14.75;;
19026;SDS011;9646;52.034;5.554;2023-02-15T10:35:46;24.98;;;16.45;;
19026;SDS011;9646;52.034;5.554;2023-02-15T10:38:18;33.53;;;22.80;;
19026;SDS011;9646;52.034;5.554;2023-02-15T10:40:51;23.60;;;15.60;;
19026;SDS011;9646;52.034;5.554;2023-02-15T10:43:37;29.88;;;19.38;;
19026;SDS011;9646;52.034;5.554;2023-02-15T10:46:07;34.17;;;23.50;;
19026;SDS011;9646;52.034;5.554;2023-02-15T10:48:50;35.97;;;24.77;;
19026;SDS011;9646;52.034;5.554;2023-02-15T10:51:22;39.15;;;26.00;;
19026;SDS011;9646;52.034;5.554;2023-02-15T10:54:00;35.67;;;23.65;;
19026;SDS011;9646;52.034;5.554;2023-02-15T10:56:30;32.45;;;20.65;;
19026;SDS011;9646;52.034;5.554;2023-02-15T11:01:47;38.95;;;24.42;;
19026;SDS011;9646;52.034;5.554;2023-02-15T11:07:04;34.78;;;23.48;;
19026;SDS011;9646;52.034;5.554;2023-02-15T11:09:33;34.13;;;23.05;;
19026;SDS011;9646;52.034;5.554;2023-02-15T11:12:03;32.60;;;22.98;;
19026;SDS011;9646;52.034;5.554;2023-02-15T11:14:35;35.92;;;25.30;;
19026;SDS011;9646;52.034;5.554;2023-02-15T11:17:04;32.47;;;21.35;;
19026;SDS011;9646;52.034;5.554;2023-02-15T11:19:34;37.20;;;25.30;;
19026;SDS011;9646;52.034;5.554;2023-02-15T11:22:02;29.27;;;19.33;;
19026;SDS011;9646;52.034;5.554;2023-02-15T11:24:33;31.60;;;22.10;;
19026;SDS011;9646;52.034;5.554;2023-02-15T11:27:03;30.33;;;20.67;;
19026;SDS011;9646;52.034;5.554;2023-02-15T11:29:32;37.22;;;24.77;;
19026;SDS011;9646;52.034;5.554;2023-02-15T11:32:01;32.33;;;21.48;;
19026;SDS011;9646;52.034;5.554;2023-02-15T11:34:31;35.97;;;21.80;;
19026;SDS011;9646;52.034;5.554;2023-02-15T11:37:04;31.25;;;21.35;;
19026;SDS011;9646;52.034;5.554;2023-02-15T11:39:33;23.25;;;16.17;;
19026;SDS011;9646;52.034;5.554;2023-02-15T11:42:13;34.40;;;23.48;;
19026;SDS011;9646;52.034;5.554;2023-02-15T11:44:45;35.60;;;23.63;;
19026;SDS011;9646;52.034;5.554;2023-02-15T11:47:15;31.48;;;21.30;;
19026;SDS011;9646;52.034;5.554;2023-02-15T11:49:42;32.15;;;21.25;;
19026;SDS011;9646;52.034;5.554;2023-02-15T11:52:12;31.05;;;21.08;;
19026;SDS011;9646;52.034;5.554;2023-02-15T11:54:41;34.28;;;21.38;;
19026;SDS011;9646;52.034;5.554;2023-02-15T11:57:11;28.83;;;19.20;;
19026;SDS011;9646;52.034;5.554;2023-02-15T11:59:39;31.85;;;20.80;;
19026;SDS011;9646;52.034;5.554;2023-02-15T12:02:11;35.67;;;22.58;;
19026;SDS011;9646;52.034;5.554;2023-02-15T12:04:43;32.47;;;20.67;;
19026;SDS011;9646;52.034;5.554;2023-02-15T12:07:13;27.00;;;18.08;;
19026;SDS011;9646;52.034;5.554;2023-02-15T12:09:45;27.90;;;17.67;;
19026;SDS011;9646;52.034;5.554;2023-02-15T12:12:20;38.40;;;25.42;;
19026;SDS011;9646;52.034;5.554;2023-02-15T12:14:49;36.70;;;24.17;;
19026;SDS011;9646;52.034;5.554;2023-02-15T12:17:16;39.58;;;25.00;;
19026;SDS011;9646;52.034;5.554;2023-02-15T12:19:44;37.90;;;24.50;;
19026;SDS011;9646;52.034;5.554;2023-02-15T12:22:18;34.20;;;23.00;;
19026;SDS011;9646;52.034;5.554;2023-02-15T12:24:48;39.30;;;26.13;;
19026;SDS011;9646;52.034;5.554;2023-02-15T12:27:16;34.00;;;22.15;;
19026;SDS011;9646;52.034;5.554;2023-02-15T12:29:44;30.90;;;20.35;;
19026;SDS011;9646;52.034;5.554;2023-02-15T12:32:16;31.08;;;19.52;;
19026;SDS011;9646;52.034;5.554;2023-02-15T12:34:44;35.40;;;22.67;;
19026;SDS011;9646;52.034;5.554;2023-02-15T12:37:15;37.28;;;24.65;;
19026;SDS011;9646;52.034;5.554;2023-02-15T12:39:51;37.45;;;25.77;;
19026;SDS011;9646;52.034;5.554;2023-02-15T12:42:19;39.75;;;24.98;;
19026;SDS011;9646;52.034;5.554;2023-02-15T12:44:57;35.50;;;23.27;;
19026;SDS011;9646;52.034;5.554;2023-02-15T12:47:24;35.60;;;21.85;;
19026;SDS011;9646;52.034;5.554;2023-02-15T12:50:05;34.08;;;21.48;;
19026;SDS011;9646;52.034;5.554;2023-02-15T12:52:34;34.97;;;24.35;;
19026;SDS011;9646;52.034;5.554;2023-02-15T12:55:11;41.50;;;26.17;;
19026;SDS011;9646;52.034;5.554;2023-02-15T12:57:38;40.55;;;26.73;;
19026;SDS011;9646;52.034;5.554;2023-02-15T13:00:24;31.02;;;21.23;;
19026;SDS011;9646;52.034;5.554;2023-02-15T13:02:53;30.13;;;20.67;;
19026;SDS011;9646;52.034;5.554;2023-02-15T13:05:22;35.58;;;22.65;;
19026;SDS011;9646;52.034;5.554;2023-02-15T13:07:53;31.15;;;20.88;;
19026;SDS011;9646;52.034;5.554;2023-02-15T13:10:25;30.90;;;22.27;;
19026;SDS011;9646;52.034;5.554;2023-02-15T13:12:53;32.10;;;19.48;;
19026;SDS011;9646;52.034;5.554;2023-02-15T13:15:27;34.17;;;22.38;;
19026;SDS011;9646;52.034;5.554;2023-02-15T13:17:55;34.25;;;21.35;;
19026;SDS011;9646;52.034;5.554;2023-02-15T13:20:22;37.80;;;25.33;;
19026;SDS011;9646;52.034;5.554;2023-02-15T13:22:52;40.75;;;23.73;;
19026;SDS011;9646;52.034;5.554;2023-02-15T13:25:21;29.13;;;20.17;;
19026;SDS011;9646;52.034;5.554;2023-02-15T13:27:51;36.40;;;23.63;;
19026;SDS011;9646;52.034;5.554;2023-02-15T13:30:23;33.85;;;21.92;;
19026;SDS011;9646;52.034;5.554;2023-02-15T13:32:51;33.17;;;22.52;;
19026;SDS011;9646;52.034;5.554;2023-02-15T13:35:19;31.52;;;21.55;;
19026;SDS011;9646;52.034;5.554;2023-02-15T13:37:54;39.72;;;24.73;;
19026;SDS011;9646;52.034;5.554;2023-02-15T13:40:25;44.72;;;27.52;;
19026;SDS011;9646;52.034;5.554;2023-02-15T13:42:54;35.53;;;22.95;;
19026;SDS011;9646;52.034;5.554;2023-02-15T13:45:28;40.40;;;25.67;;
19026;SDS011;9646;52.034;5.554;2023-02-15T13:47:59;39.00;;;25.65;;
19026;SDS011;9646;52.034;5.554;2023-02-15T13:50:31;33.40;;;23.17;;
19026;SDS011;9646;52.034;5.554;2023-02-15T13:53:12;35.15;;;22.95;;
19026;SDS011;9646;52.034;5.554;2023-02-15T13:55:46;32.70;;;21.02;;
19026;SDS011;9646;52.034;5.554;2023-02-15T13:58:30;35.60;;;23.80;;
19026;SDS011;9646;52.034;5.554;2023-02-15T14:01:04;33.97;;;21.70;;
19026;SDS011;9646;52.034;5.554;2023-02-15T14:03:44;38.38;;;26.02;;
19026;SDS011;9646;52.034;5.554;2023-02-15T14:06:24;41.67;;;27.63;;
19026;SDS011;9646;52.034;5.554;2023-02-15T14:08:57;40.13;;;27.05;;
19026;SDS011;9646;52.034;5.554;2023-02-15T14:11:29;44.88;;;28.00;;
19026;SDS011;9646;52.034;5.554;2023-02-15T14:16:56;39.47;;;23.60;;
19026;SDS011;9646;52.034;5.554;2023-02-15T14:19:25;43.33;;;27.45;;
19026;SDS011;9646;52.034;5.554;2023-02-15T14:21:56;43.25;;;26.55;;
19026;SDS011;9646;52.034;5.554;2023-02-15T14:24:27;41.17;;;26.50;;
19026;SDS011;9646;52.034;5.554;2023-02-15T14:26:59;44.65;;;27.85;;
19026;SDS011;9646;52.034;5.554;2023-02-15T14:29:35;34.35;;;21.92;;
19026;SDS011;9646;52.034;5.554;2023-02-15T14:32:07;35.67;;;22.13;;
19026;SDS011;9646;52.034;5.554;2023-02-15T14:34:37;41.95;;;26.45;;
19026;SDS011;9646;52.034;5.554;2023-02-15T14:37:08;34.55;;;23.00;;
19026;SDS011;9646;52.034;5.554;2023-02-15T14:39:40;44.05;;;29.40;;
19026;SDS011;9646;52.034;5.554;2023-02-15T14:42:28;36.80;;;23.70;;
19026;SDS011;9646;52.034;5.554;2023-02-15T14:44:59;39.72;;;26.23;;
19026;SDS011;9646;52.034;5.554;2023-02-15T14:47:30;39.85;;;27.13;;
19026;SDS011;9646;52.034;5.554;2023-02-15T14:49:58;40.47;;;27.75;;
19026;SDS011;9646;52.034;5.554;2023-02-15T14:52:25;36.97;;;22.85;;
19026;SDS011;9646;52.034;5.554;2023-02-15T14:54:54;35.15;;;23.13;;
19026;SDS011;9646;52.034;5.554;2023-02-15T14:57:23;44.25;;;28.38;;
19026;SDS011;9646;52.034;5.554;2023-02-15T14:59:52;40.28;;;25.45;;
19026;SDS011;9646;52.034;5.554;2023-02-15T15:02:23;43.83;;;27.45;;
19026;SDS011;9646;52.034;5.554;2023-02-15T15:04:56;39.53;;;27.25;;
19026;SDS011;9646;52.034;5.554;2023-02-15T15:07:25;45.90;;;27.98;;
19026;SDS011;9646;52.034;5.554;2023-02-15T15:09:58;38.35;;;23.63;;
19026;SDS011;9646;52.034;5.554;2023-02-15T15:12:39;37.33;;;24.92;;